• Join FlightAware (Why Join?)
  • Login
  • US Flag 
08:21AM EST


 

Airport Tracker/Info


-or-


 

Live Flight TrackerFlight Track Log ✈ N673CA ✈ 11-Jun-2013 ✈ KDMW - KDMW

Flight Track Log - Related Links

Times and Time Zones

All times are in EDT time to prevent confusion due to time zone crossing. See the N673CA flight status page for this flight to view local times or setup timezone preferences in your user account.

Time Position Orientation Groundspeed Altitude Reporting Facility
EDT Latitude Longitude Course Direction KTS MPH feet Rate Location/Type
11:20AM 39.4833 -77.0167 194° South 140 161 6,300  Level Potomac TRACON
11:21AM 39.4333 -77.0333 194° South 144 166 7,500 1,250 Climbing Potomac TRACON
11:22AM 39.4000 -77.0500 201° Southwest 141 162 8,800 1,300 Climbing Potomac TRACON
11:23AM 39.3833 -77.0833 237° Southwest 128 147 10,100 1,200 Climbing Potomac TRACON
11:24AM 39.3500 -77.1167 218° Southwest 133 153 11,200 1,050 Climbing Potomac TRACON
11:25AM 39.3333 -77.1667 247° West 134 154 12,200 942 Climbing Potomac TRACON
11:26AM 39.3333 -77.2000 270° West 146 168 13,100 1,041 Climbing Potomac TRACON
11:27AM 39.3667 -77.2333 322° Northwest 134 154 14,300 1,158 Climbing Potomac TRACON
11:28AM 39.4000 -77.2500 339° North 133 153 15,300 850 Climbing Potomac TRACON
11:29AM 39.4333 -77.2833 322° Northwest 136 157 16,000 333 Climbing Potomac TRACON
11:30AM 39.4667 -77.3167 322° Northwest 151 174 16,000  Level Potomac TRACON
11:31AM 39.5000 -77.3333 339° North 159 183 16,000 183 Level Potomac TRACON
11:32AM 39.5442 -77.3758 323° Northwest 160 184 16,400 698 Climbing Washington Center
11:34AM 39.5908 -77.4122 329° Northwest 123 142 18,000 852 Climbing New York Center
11:35AM 39.6247 -77.4397 328° Northwest 118 136 18,700 595 Climbing New York Center
11:36AM 39.6592 -77.4564 340° North 128 147 19,200 500 Climbing New York Center
11:37AM 39.7031 -77.4553 North 139 160 19,700 403 Climbing New York Center
11:38AM 39.7511 -77.4542 North 154 177 20,000 149 Climbing New York Center
11:39AM 39.7992 -77.4508 North 165 190 20,000  Level New York Center
11:40AM 39.8472 -77.4528 358° North 165 190 20,000  Level New York Center
11:41AM 39.8931 -77.4517 North 165 190 20,000  Level New York Center
11:42AM 39.9411 -77.4508 North 165 190 20,000  Level New York Center
11:43AM 39.9822 -77.4250 26° Northeast 157 181 20,000  Level New York Center
11:44AM 39.9764 -77.3403 95° East 149 171 20,000 -353 Level New York Center
11:45AM 39.9706 -77.2558 95° East 192 221 19,300 -1,024 Descending New York Center
11:46AM 39.9675 -77.1633 92° East 235 270 17,900 -1,311 Descending New York Center
11:47AM 39.9261 -77.0756 122° Southeast 246 283 16,700 -1,083 Descending New York Center
11:49AM 39.8333 -76.9000 124° Southeast 249 287 14,200 -1,067 Descending Potomac TRACON
11:50AM 39.7833 -76.8167 128° Southeast 233 268 13,000 -1,339 Descending Potomac TRACON
11:51AM 39.7500 -76.7667 131° Southeast 215 247 11,500 -1,587 Descending Potomac TRACON
11:52AM 39.7167 -76.7000 123° Southeast 214 246 9,800 -1,750 Descending Potomac TRACON
11:53AM 39.6833 -76.7333 218° Southwest 155 178 8,000 -1,895 Descending Potomac TRACON
11:54AM 39.6667 -76.7833 247° West 142 163 6,200 -1,900 Descending Potomac TRACON
11:55AM 39.6500 -76.8167 237° Southwest 134 154 4,200 -1,524 Descending Potomac TRACON
11:56AM 39.6333 -76.8667 247° West 133 153 3,000 -1,200 Descending Potomac TRACON
11:58AM 39.6244 -76.9282 255° West  Level FlightAware Approximate